Time;durP1;ratioP1;P1;durP2;ratioP2;P2;SDS_P1;SDS_P2;PMS_P1;PMS_P2;Temp;Humidity;BMP_temperature;BMP_pressure;BME280_temperature;BME280_humidity;BME280_pressure;Samples;Min_cycle;Max_cycle;Signal;HPM_P1;HPM_P2
2023/04/30 00:02:05;;;;;;;5.07;3.70;;;11.40;99.90;;;;;;5088943;28;20207;-70
2023/04/30 00:04:31;;;;;;;5.65;4.35;;;11.40;99.90;;;;;;5089060;28;20203;-70
2023/04/30 00:06:58;;;;;;;4.18;3.10;;;11.40;99.90;;;;;;5089247;28;20231;-70
2023/04/30 00:09:25;;;;;;;5.35;3.78;;;11.40;99.90;;;;;;5089157;28;20285;-70
2023/04/30 00:11:52;;;;;;;3.45;3.15;;;11.30;99.90;;;;;;5087738;28;20207;-69
2023/04/30 00:14:18;;;;;;;3.75;3.45;;;11.30;99.90;;;;;;5089766;28;20188;-71
2023/04/30 00:16:45;;;;;;;3.80;3.45;;;11.30;99.90;;;;;;5089076;28;20242;-70
2023/04/30 00:19:13;;;;;;;4.10;3.53;;;11.30;99.90;;;;;;5060784;28;20199;-70
2023/04/30 00:21:40;;;;;;;3.20;2.90;;;11.30;99.90;;;;;;5068612;28;20200;-70
2023/04/30 00:24:07;;;;;;;4.13;3.75;;;11.30;99.90;;;;;;5068710;28;20204;-70
2023/04/30 00:26:34;;;;;;;4.55;3.65;;;11.30;99.90;;;;;;5068684;28;20220;-70
2023/04/30 00:29:00;;;;;;;3.90;3.08;;;11.30;99.90;;;;;;5068692;28;20216;-69
2023/04/30 00:31:27;;;;;;;3.00;2.70;;;11.20;99.90;;;;;;5068903;28;20205;-69
2023/04/30 00:33:54;;;;;;;4.13;3.25;;;11.20;99.90;;;;;;5068675;28;20200;-70
2023/04/30 00:36:22;;;;;;;3.67;3.05;;;11.20;99.90;;;;;;5068101;28;20224;-69
2023/04/30 00:38:49;;;;;;;4.50;3.75;;;11.10;99.90;;;;;;5085569;28;20192;-69
2023/04/30 00:41:16;;;;;;;3.40;3.08;;;11.10;99.90;;;;;;5088654;28;20705;-69
2023/04/30 00:43:45;;;;;;;3.70;3.10;;;11.10;99.90;;;;;;5088933;28;20196;-69
2023/04/30 00:46:12;;;;;;;3.60;3.30;;;11.00;99.90;;;;;;5077350;28;20702;-69
2023/04/30 00:48:39;;;;;;;3.38;3.08;;;11.00;99.90;;;;;;5076318;28;20896;-69
2023/04/30 00:51:06;;;;;;;5.05;4.40;;;11.00;99.90;;;;;;5082136;28;20639;-68
2023/04/30 00:53:36;;;;;;;3.83;3.47;;;11.00;99.90;;;;;;5072682;28;20283;-69
2023/04/30 00:56:03;;;;;;;4.28;3.42;;;11.00;99.90;;;;;;5082557;28;20307;-70
2023/04/30 00:58:30;;;;;;;4.07;3.47;;;11.00;99.90;;;;;;5085021;28;20207;-69
2023/04/30 01:00:58;;;;;;;4.00;3.60;;;10.90;99.90;;;;;;5079768;28;20222;-70
2023/04/30 01:03:25;;;;;;;5.40;3.70;;;10.90;99.90;;;;;;5072708;28;20200;-69
2023/04/30 01:05:52;;;;;;;4.72;3.72;;;10.90;99.90;;;;;;5089552;28;20260;-70
2023/04/30 01:08:19;;;;;;;5.13;3.35;;;10.90;99.90;;;;;;5085429;28;20196;-69
2023/04/30 01:10:54;;;;;;;4.00;3.15;;;10.90;99.90;;;;;;5087550;28;20196;-69
2023/04/30 01:13:28;;;;;;;3.42;3.13;;;10.80;99.90;;;;;;5093655;28;20191;-73
2023/04/30 01:16:07;;;;;;;5.00;3.60;;;10.80;99.90;;;;;;5084794;28;20581;-70
2023/04/30 01:18:39;;;;;;;3.88;3.50;;;10.80;99.90;;;;;;5080823;28;20215;-69
2023/04/30 01:21:07;;;;;;;5.32;2.92;;;10.80;99.90;;;;;;5089070;28;20207;-69
2023/04/30 01:23:54;;;;;;;4.68;3.67;;;10.80;99.90;;;;;;5080393;28;20205;-69
2023/04/30 01:26:38;;;;;;;4.07;3.15;;;10.80;99.90;;;;;;5071957;28;20227;-70
2023/04/30 01:29:08;;;;;;;5.72;3.70;;;10.80;99.90;;;;;;5073958;28;20606;-71
2023/04/30 01:31:35;;;;;;;3.88;3.25;;;10.80;99.90;;;;;;5092367;28;20203;-71
2023/04/30 01:34:01;;;;;;;6.35;3.60;;;10.70;99.90;;;;;;5092112;28;20295;-71
2023/04/30 01:36:45;;;;;;;5.03;4.05;;;10.70;99.90;;;;;;5085047;28;20216;-71
2023/04/30 01:39:30;;;;;;;6.90;3.83;;;10.70;99.90;;;;;;5072095;28;20200;-70
2023/04/30 01:42:05;;;;;;;4.50;4.00;;;10.70;99.90;;;;;;5071116;28;20203;-70
2023/04/30 01:44:55;;;;;;;5.78;3.97;;;10.70;99.90;;;;;;5072354;28;20196;-69
2023/04/30 01:47:33;;;;;;;4.78;3.88;;;10.70;99.90;;;;;;5072294;28;20211;-70
2023/04/30 01:50:11;;;;;;;4.50;3.50;;;10.70;99.90;;;;;;5071169;28;20212;-69
2023/04/30 01:52:45;;;;;;;6.05;4.38;;;10.60;99.90;;;;;;5071503;28;20253;-70
2023/04/30 01:55:15;;;;;;;4.85;3.55;;;10.60;99.90;;;;;;5071891;28;20228;-70
2023/04/30 01:57:49;;;;;;;6.68;3.67;;;10.60;99.90;;;;;;5071665;28;20196;-70
2023/04/30 02:00:17;;;;;;;6.18;4.45;;;10.60;99.90;;;;;;5070913;28;20203;-70
2023/04/30 02:02:44;;;;;;;4.70;3.72;;;10.60;99.90;;;;;;5071171;28;20200;-69
2023/04/30 02:05:11;;;;;;;5.18;4.40;;;10.60;99.90;;;;;;5082876;28;20219;-70
2023/04/30 02:07:40;;;;;;;6.18;4.25;;;10.60;99.90;;;;;;5092224;28;20585;-69
2023/04/30 02:10:08;;;;;;;5.65;3.97;;;10.60;99.90;;;;;;5091587;28;20220;-70
2023/04/30 02:12:35;;;;;;;14.07;5.00;;;10.50;99.90;;;;;;5091180;28;20200;-70
2023/04/30 02:15:03;;;;;;;6.47;4.55;;;10.50;99.90;;;;;;5091846;28;20195;-69
2023/04/30 02:17:31;;;;;;;8.93;5.10;;;10.50;99.90;;;;;;5091888;28;20204;-69
2023/04/30 02:19:58;;;;;;;5.72;4.60;;;10.50;99.90;;;;;;5091095;28;20196;-70
2023/04/30 02:22:24;;;;;;;7.47;4.55;;;10.50;99.90;;;;;;5139263;22;20726;-68
2023/04/30 02:24:52;;;;;;;7.22;4.80;;;10.50;99.90;;;;;;5052197;28;20263;-68
2023/04/30 02:27:20;;;;;;;7.55;5.20;;;10.50;99.90;;;;;;5032208;28;20297;-68
2023/04/30 02:29:47;;;;;;;6.13;4.88;;;10.50;99.90;;;;;;5032025;28;20217;-69
2023/04/30 02:32:13;;;;;;;6.15;4.90;;;10.50;99.90;;;;;;5031540;28;20198;-68
2023/04/30 02:34:41;;;;;;;7.97;4.97;;;10.40;99.90;;;;;;5032566;28;20289;-68
2023/04/30 02:37:08;;;;;;;7.38;5.38;;;10.50;99.90;;;;;;5031632;28;20225;-68
2023/04/30 02:39:35;;;;;;;6.13;5.40;;;10.40;99.90;;;;;;5031620;28;20190;-68
2023/04/30 02:42:01;;;;;;;7.95;5.05;;;10.40;99.90;;;;;;5031561;28;20205;-68
2023/04/30 02:44:29;;;;;;;9.82;5.50;;;10.40;99.90;;;;;;5036548;28;20664;-69
2023/04/30 02:46:56;;;;;;;7.15;5.50;;;10.40;99.90;;;;;;5050793;28;20743;-68
2023/04/30 02:49:22;;;;;;;6.78;5.18;;;10.30;99.90;;;;;;5050858;28;20300;-69
2023/04/30 02:51:50;;;;;;;7.13;4.95;;;10.40;99.90;;;;;;5050828;28;20204;-69
2023/04/30 02:54:17;;;;;;;6.55;5.50;;;10.40;99.90;;;;;;5050815;28;20200;-70
2023/04/30 02:56:44;;;;;;;6.55;5.00;;;10.30;99.90;;;;;;5051142;28;20221;-69
2023/04/30 02:59:11;;;;;;;6.57;5.05;;;10.30;99.90;;;;;;5050505;28;20286;-69
2023/04/30 03:01:37;;;;;;;7.85;5.38;;;10.30;99.90;;;;;;5050877;28;20664;-68
2023/04/30 03:04:04;;;;;;;7.55;5.80;;;10.20;99.90;;;;;;5050764;28;20211;-69
2023/04/30 03:06:31;;;;;;;6.65;4.93;;;10.20;99.90;;;;;;5050595;28;20221;-69
2023/04/30 03:09:00;;;;;;;7.38;5.25;;;10.20;99.90;;;;;;5050682;28;20201;-68
2023/04/30 03:11:26;;;;;;;6.82;5.50;;;10.20;99.90;;;;;;5050057;28;20680;-69
2023/04/30 03:13:53;;;;;;;6.28;4.85;;;10.20;99.90;;;;;;5050293;28;20568;-68
2023/04/30 03:16:21;;;;;;;6.47;5.15;;;10.20;99.90;;;;;;5050286;28;20217;-69
2023/04/30 03:18:49;;;;;;;8.23;5.15;;;10.10;99.90;;;;;;5050499;28;20227;-68
2023/04/30 03:21:16;;;;;;;7.25;5.43;;;10.10;99.90;;;;;;5050331;28;20208;-69
2023/04/30 03:23:42;;;;;;;5.97;5.38;;;10.10;99.90;;;;;;5050231;28;20683;-69
2023/04/30 03:26:10;;;;;;;9.15;5.90;;;10.10;99.90;;;;;;5050317;28;20217;-69
2023/04/30 03:28:37;;;;;;;11.48;5.72;;;10.10;99.90;;;;;;5050177;28;20200;-69
2023/04/30 03:31:05;;;;;;;6.93;5.18;;;10.00;99.90;;;;;;5050164;28;20213;-69
2023/04/30 03:33:31;;;;;;;8.10;5.00;;;10.10;99.90;;;;;;5050000;28;20239;-70
2023/04/30 03:35:58;;;;;;;7.10;4.85;;;10.00;99.90;;;;;;5049926;28;20221;-69
2023/04/30 03:38:25;;;;;;;6.13;5.07;;;10.00;99.90;;;;;;5049961;28;20726;-70
2023/04/30 03:40:52;;;;;;;8.40;6.00;;;10.00;99.90;;;;;;5050432;28;20228;-70
2023/04/30 03:43:20;;;;;;;7.70;5.65;;;10.00;99.90;;;;;;5054146;28;20239;-70
2023/04/30 03:45:46;;;;;;;6.55;5.38;;;10.00;99.90;;;;;;5053902;28;20281;-70
2023/04/30 03:48:13;;;;;;;6.43;5.22;;;10.00;99.90;;;;;;5052909;28;20633;-70
2023/04/30 03:50:40;;;;;;;6.53;5.35;;;10.00;99.90;;;;;;5052869;28;20217;-69
2023/04/30 03:53:06;;;;;;;7.50;5.32;;;10.00;99.90;;;;;;5052407;28;20205;-70
2023/04/30 03:55:34;;;;;;;6.85;5.50;;;10.00;99.90;;;;;;5052470;28;20252;-69
2023/04/30 03:58:01;;;;;;;8.15;5.30;;;10.00;99.90;;;;;;5052094;28;20570;-70
2023/04/30 04:00:29;;;;;;;7.00;5.45;;;9.90;99.90;;;;;;5052252;28;20254;-69
2023/04/30 04:02:57;;;;;;;6.88;5.30;;;9.90;99.90;;;;;;5051951;28;20303;-69
2023/04/30 04:05:24;;;;;;;6.72;5.45;;;9.90;99.90;;;;;;5051999;28;20221;-69
2023/04/30 04:07:51;;;;;;;7.35;5.43;;;9.90;99.90;;;;;;5051468;28;20201;-69
2023/04/30 04:10:17;;;;;;;10.70;6.20;;;10.00;99.90;;;;;;5051012;28;20228;-69
2023/04/30 04:12:45;;;;;;;5.20;4.30;;;9.90;99.90;;;;;;5051079;28;20202;-70
2023/04/30 04:15:12;;;;;;;6.45;5.20;;;9.90;99.90;;;;;;5051009;28;20591;-69
2023/04/30 04:17:40;;;;;;;6.68;5.25;;;9.90;99.90;;;;;;5051154;28;20213;-69
2023/04/30 04:20:08;;;;;;;7.05;5.10;;;9.90;99.90;;;;;;5050863;28;20202;-69
2023/04/30 04:22:35;;;;;;;6.68;5.07;;;9.90;99.90;;;;;;5050761;28;20202;-70
2023/04/30 04:25:01;;;;;;;6.97;4.80;;;9.90;99.90;;;;;;5054899;28;20208;-69
2023/04/30 04:27:28;;;;;;;8.77;5.72;;;9.90;99.90;;;;;;5054923;28;20201;-69
2023/04/30 04:29:55;;;;;;;7.88;5.47;;;9.90;99.90;;;;;;5047744;28;20221;-69
2023/04/30 04:32:23;;;;;;;7.50;5.05;;;9.90;99.90;;;;;;5034286;28;20206;-69
2023/04/30 04:34:53;;;;;;;6.22;4.78;;;9.80;99.90;;;;;;5034767;28;20193;-69
2023/04/30 04:37:19;;;;;;;6.88;5.32;;;9.80;99.90;;;;;;5034399;28;20288;-68
2023/04/30 04:39:46;;;;;;;8.55;5.35;;;9.80;99.90;;;;;;5034827;28;20201;-69
2023/04/30 04:42:14;;;;;;;8.35;6.05;;;9.80;99.90;;;;;;5033953;28;20201;-69
2023/04/30 04:44:41;;;;;;;7.53;5.35;;;9.70;99.90;;;;;;5034930;28;20209;-68
2023/04/30 04:47:08;;;;;;;6.03;4.90;;;9.70;99.90;;;;;;5034417;28;20221;-69
2023/04/30 04:49:35;;;;;;;8.10;5.40;;;9.80;99.90;;;;;;5043845;28;20205;-69
2023/04/30 04:52:04;;;;;;;8.32;5.57;;;9.80;99.90;;;;;;5039363;28;20201;-69
2023/04/30 04:54:31;;;;;;;6.13;4.78;;;9.80;99.90;;;;;;5037243;28;20202;-69
2023/04/30 04:56:57;;;;;;;6.53;4.57;;;9.80;99.90;;;;;;5036806;28;20231;-69
2023/04/30 04:59:25;;;;;;;8.68;5.82;;;9.90;99.90;;;;;;5036074;28;20198;-69
2023/04/30 05:01:52;;;;;;;6.00;4.65;;;9.90;99.90;;;;;;5035519;28;20244;-69
2023/04/30 05:04:18;;;;;;;6.10;5.53;;;9.90;99.90;;;;;;5035561;28;20206;-69
2023/04/30 05:06:45;;;;;;;7.40;5.20;;;9.90;99.90;;;;;;5035546;28;20224;-70
2023/04/30 05:09:13;;;;;;;8.25;6.05;;;9.90;99.90;;;;;;5035311;28;20691;-69
2023/04/30 05:11:40;;;;;;;6.78;5.70;;;9.90;99.90;;;;;;5035143;28;20272;-69
2023/04/30 05:14:07;;;;;;;8.57;5.95;;;9.90;99.90;;;;;;5034559;28;20198;-68
2023/04/30 05:16:33;;;;;;;7.05;5.60;;;10.00;99.90;;;;;;5035027;28;20224;-68
2023/04/30 05:19:00;;;;;;;8.40;6.13;;;10.00;99.90;;;;;;5034762;28;20202;-68
2023/04/30 05:21:28;;;;;;;6.07;5.03;;;10.00;99.90;;;;;;5037841;28;20205;-68
2023/04/30 05:23:55;;;;;;;6.72;5.03;;;10.10;99.90;;;;;;5058754;28;20255;-70
2023/04/30 05:26:23;;;;;;;7.03;5.20;;;10.20;99.90;;;;;;5063436;28;20217;-69
2023/04/30 05:28:51;;;;;;;7.80;5.90;;;10.30;99.90;;;;;;5057581;28;20228;-69
2023/04/30 05:31:18;;;;;;;8.02;5.50;;;10.40;99.90;;;;;;5055691;28;20217;-69
2023/04/30 05:33:44;;;;;;;6.57;5.38;;;10.40;99.90;;;;;;5055204;28;20247;-69
2023/04/30 05:36:11;;;;;;;6.70;4.60;;;10.50;99.90;;;;;;5053718;28;20236;-69
2023/04/30 05:38:38;;;;;;;6.80;4.65;;;10.60;99.90;;;;;;5054668;28;20193;-69
2023/04/30 05:41:05;;;;;;;5.80;4.68;;;10.70;99.90;;;;;;5055723;28;20193;-69
2023/04/30 05:43:33;;;;;;;6.28;5.25;;;10.80;99.90;;;;;;5055330;28;20668;-68
2023/04/30 05:46:00;;;;;;;7.85;5.32;;;10.80;99.90;;;;;;5054980;28;20217;-69
2023/04/30 05:48:27;;;;;;;6.00;4.90;;;10.90;99.90;;;;;;5054647;28;20197;-68
2023/04/30 05:50:53;;;;;;;7.25;5.32;;;10.90;99.90;;;;;;5052832;28;20332;-69
2023/04/30 05:53:20;;;;;;;7.35;5.35;;;10.90;99.90;;;;;;5052020;28;20258;-68
2023/04/30 05:55:47;;;;;;;9.73;5.22;;;10.90;99.90;;;;;;5052451;28;20224;-69
2023/04/30 05:58:14;;;;;;;6.80;5.85;;;10.90;99.90;;;;;;5052348;28;20703;-69
2023/04/30 06:00:42;;;;;;;7.50;5.18;;;11.00;99.90;;;;;;5052608;28;20197;-69
2023/04/30 06:03:08;;;;;;;6.85;5.15;;;11.10;99.90;;;;;;5051940;28;20212;-69
2023/04/30 06:05:35;;;;;;;6.40;5.40;;;11.10;99.90;;;;;;5052768;28;20221;-69
2023/04/30 06:08:02;;;;;;;6.57;5.53;;;11.30;99.90;;;;;;5052038;28;20197;-68
2023/04/30 06:10:28;;;;;;;6.47;5.53;;;11.40;99.90;;;;;;5052479;28;20213;-68
2023/04/30 06:12:56;;;;;;;6.32;4.93;;;11.50;99.90;;;;;;5052086;28;20668;-69
2023/04/30 06:15:22;;;;;;;5.53;4.70;;;11.60;99.90;;;;;;5052005;28;20583;-70
2023/04/30 06:17:50;;;;;;;7.35;4.90;;;11.60;99.90;;;;;;5052087;28;20197;-69
2023/04/30 06:20:17;;;;;;;5.97;5.38;;;11.60;99.90;;;;;;5051534;28;20197;-69
2023/04/30 06:22:44;;;;;;;6.78;5.10;;;11.60;99.90;;;;;;5051875;28;20255;-69
2023/04/30 06:25:11;;;;;;;7.93;5.30;;;11.60;99.90;;;;;;5051598;28;20217;-69
2023/04/30 06:27:37;;;;;;;8.65;6.00;;;11.70;99.90;;;;;;5051874;28;20250;-69
2023/04/30 06:30:05;;;;;;;6.20;5.15;;;11.90;99.90;;;;;;5051379;28;20208;-69
2023/04/30 06:32:32;;;;;;;7.25;5.20;;;12.10;99.90;;;;;;5050969;28;20217;-69
2023/04/30 06:35:00;;;;;;;5.30;4.80;;;12.20;99.90;;;;;;5051779;28;20204;-68
2023/04/30 06:37:27;;;;;;;7.03;4.90;;;12.30;99.90;;;;;;5051418;28;20205;-68
2023/04/30 06:39:53;;;;;;;6.53;5.32;;;12.30;99.90;;;;;;5051709;28;20572;-68
2023/04/30 06:42:20;;;;;;;6.25;5.50;;;12.30;99.90;;;;;;5050933;28;20200;-68
2023/04/30 06:44:47;;;;;;;5.93;5.30;;;12.40;99.90;;;;;;5052216;28;20201;-68
2023/04/30 06:47:13;;;;;;;6.15;5.30;;;12.20;99.90;;;;;;5051541;28;20470;-67
2023/04/30 06:49:40;;;;;;;6.47;5.40;;;12.30;99.90;;;;;;5039084;28;20273;-70
2023/04/30 06:52:08;;;;;;;5.00;4.60;;;12.40;99.90;;;;;;5039173;28;20213;-68
2023/04/30 06:54:35;;;;;;;9.05;5.78;;;12.50;99.90;;;;;;5052355;28;20201;-68
2023/04/30 06:57:02;;;;;;;6.10;4.85;;;12.70;99.90;;;;;;5037019;28;20226;-69
2023/04/30 06:59:30;;;;;;;5.13;4.63;;;12.80;99.90;;;;;;5042973;28;20953;-70
2023/04/30 07:01:56;;;;;;;5.70;4.72;;;13.00;99.90;;;;;;5054947;28;20970;-68
2023/04/30 07:04:25;;;;;;;6.35;4.63;;;13.20;99.90;;;;;;5055308;28;20197;-70
2023/04/30 07:06:52;;;;;;;4.60;4.13;;;13.40;99.90;;;;;;5053820;28;20769;-69
2023/04/30 07:09:20;;;;;;;5.57;4.80;;;13.50;99.90;;;;;;5051648;28;20467;-69
2023/04/30 07:11:46;;;;;;;8.77;5.07;;;13.60;99.90;;;;;;5052002;28;20483;-68
2023/04/30 07:14:13;;;;;;;5.40;4.50;;;13.50;99.90;;;;;;5036012;28;20464;-69
2023/04/30 07:16:40;;;;;;;5.67;4.53;;;13.60;99.90;;;;;;5031756;28;20484;-69
2023/04/30 07:19:06;;;;;;;7.67;6.00;;;13.70;99.90;;;;;;5032609;28;20467;-70
2023/04/30 07:21:33;;;;;;;4.90;4.47;;;13.80;99.90;;;;;;5031721;28;20460;-69
2023/04/30 07:24:00;;;;;;;4.60;4.07;;;14.00;99.90;;;;;;5032143;28;20954;-70
2023/04/30 07:26:28;;;;;;;5.13;4.50;;;14.20;99.90;;;;;;5032001;28;20480;-69
2023/04/30 07:28:54;;;;;;;5.50;4.67;;;14.30;99.90;;;;;;5046361;28;20463;-70
2023/04/30 07:31:21;;;;;;;5.33;4.83;;;14.20;99.90;;;;;;5051236;28;20871;-69
2023/04/30 07:33:49;;;;;;;4.87;3.83;;;14.10;99.90;;;;;;5051893;28;20463;-70
2023/04/30 07:36:16;;;;;;;5.13;3.97;;;14.10;99.90;;;;;;5050886;28;20483;-69
2023/04/30 07:38:43;;;;;;;5.03;4.53;;;14.10;99.90;;;;;;5051338;28;20496;-70
2023/04/30 07:41:11;;;;;;;4.87;4.33;;;14.10;99.90;;;;;;5050778;28;20451;-69
2023/04/30 07:43:39;;;;;;;6.43;4.43;;;14.00;99.90;;;;;;5042410;28;20470;-70
2023/04/30 07:46:06;;;;;;;4.77;4.30;;;14.10;99.90;;;;;;5051374;28;20479;-69
2023/04/30 07:48:32;;;;;;;4.20;3.80;;;14.10;99.90;;;;;;5050412;28;20502;-69
2023/04/30 07:50:59;;;;;;;4.87;4.37;;;14.10;99.90;;;;;;5050513;28;20998;-69
2023/04/30 07:53:26;;;;;;;3.87;3.50;;;14.20;99.90;;;;;;5050176;28;20455;-70
2023/04/30 07:55:52;;;;;;;4.80;4.20;;;14.30;99.90;;;;;;5046130;28;20486;-70
2023/04/30 07:58:19;;;;;;;4.70;4.13;;;14.50;99.90;;;;;;5049854;28;20474;-69
2023/04/30 08:00:47;;;;;;;5.40;4.37;;;14.50;99.90;;;;;;5050889;28;20490;-69
2023/04/30 08:03:14;;;;;;;4.70;4.30;;;14.50;99.90;;;;;;5050781;28;20495;-69
2023/04/30 08:05:41;;;;;;;5.87;4.10;;;14.50;99.90;;;;;;5054464;28;20519;-70
2023/04/30 08:08:08;;;;;;;4.77;4.37;;;14.60;99.90;;;;;;5054857;28;21032;-70
2023/04/30 08:10:36;;;;;;;4.73;4.03;;;14.60;99.90;;;;;;5052948;28;20533;-67
2023/04/30 08:13:04;;;;;;;4.93;4.13;;;14.60;99.90;;;;;;5052146;28;20463;-70
2023/04/30 08:15:33;;;;;;;3.40;3.10;;;14.60;99.90;;;;;;5050397;28;20552;-68
2023/04/30 08:18:02;;;;;;;4.33;3.80;;;14.70;99.90;;;;;;5050795;28;20490;-69
2023/04/30 08:20:29;;;;;;;4.60;3.87;;;15.00;99.90;;;;;;5050746;28;20467;-69
2023/04/30 08:22:56;;;;;;;4.37;3.47;;;15.20;99.90;;;;;;5040082;28;20543;-69
2023/04/30 08:25:22;;;;;;;4.20;2.90;;;15.20;99.90;;;;;;5048193;28;20571;-68
2023/04/30 08:27:49;;;;;;;3.73;3.20;;;15.00;99.90;;;;;;5046601;28;20838;-69
2023/04/30 08:30:16;;;;;;;4.53;3.70;;;15.00;99.90;;;;;;5030432;28;20817;-69
2023/04/30 08:32:43;;;;;;;4.50;4.10;;;15.00;99.90;;;;;;5031542;28;20488;-68
2023/04/30 08:35:11;;;;;;;4.50;3.73;;;14.90;99.90;;;;;;5039292;28;21074;-69
2023/04/30 08:37:38;;;;;;;4.50;3.87;;;14.80;99.90;;;;;;5050179;28;20471;-68
2023/04/30 08:40:08;;;;;;;4.23;3.50;;;14.90;99.90;;;;;;5035327;28;20842;-69
2023/04/30 08:42:37;;;;;;;4.03;3.63;;;14.90;99.90;;;;;;5048626;28;20459;-69
2023/04/30 08:45:04;;;;;;;4.00;3.60;;;14.90;99.90;;;;;;5043822;28;20491;-69
2023/04/30 08:47:31;;;;;;;3.90;3.50;;;14.90;99.90;;;;;;5048557;28;20863;-69
2023/04/30 08:49:58;;;;;;;4.97;3.67;;;15.20;99.90;;;;;;5054156;28;20903;-68
2023/04/30 08:52:28;;;;;;;3.03;2.73;;;15.30;99.90;;;;;;5042490;28;20476;-69
2023/04/30 08:54:57;;;;;;;3.53;2.80;;;15.20;99.90;;;;;;5032380;28;20461;-68
2023/04/30 08:57:24;;;;;;;3.30;3.00;;;15.00;99.90;;;;;;5030055;28;20805;-67
2023/04/30 08:59:50;;;;;;;3.33;3.03;;;14.90;99.90;;;;;;5033260;28;20958;-69
2023/04/30 09:02:17;;;;;;;3.40;3.10;;;14.90;99.90;;;;;;5036035;28;21000;-69
2023/04/30 09:04:44;;;;;;;3.53;3.23;;;14.90;99.90;;;;;;5050661;28;20646;-69
2023/04/30 09:07:13;;;;;;;3.27;2.90;;;14.70;99.90;;;;;;5043351;28;20483;-69
2023/04/30 09:09:41;;;;;;;3.53;3.23;;;14.70;99.90;;;;;;5051271;28;20467;-70
2023/04/30 09:12:14;;;;;;;3.67;3.37;;;14.60;99.90;;;;;;5053875;28;20483;-70
2023/04/30 09:14:41;;;;;;;2.70;2.50;;;14.40;99.90;;;;;;5052365;28;20470;-70
2023/04/30 09:17:08;;;;;;;3.10;2.80;;;14.30;99.90;;;;;;5042255;28;21016;-68
2023/04/30 09:19:36;;;;;;;3.37;2.90;;;14.30;99.90;;;;;;5051043;28;20459;-69
2023/04/30 09:22:22;;;;;;;3.30;2.53;;;14.30;99.90;;;;;;5051991;28;20949;-70
2023/04/30 09:24:52;;;;;;;3.20;2.90;;;14.30;99.90;;;;;;5051991;28;20789;-70
2023/04/30 09:27:20;;;;;;;4.27;3.10;;;14.40;99.90;;;;;;5052349;28;20455;-68
2023/04/30 09:29:47;;;;;;;3.13;2.90;;;14.40;99.90;;;;;;5051598;28;20518;-69
2023/04/30 09:32:14;;;;;;;2.67;2.43;;;14.40;99.90;;;;;;5052199;28;20533;-69
2023/04/30 09:34:42;;;;;;;3.57;3.00;;;14.40;99.90;;;;;;5050426;28;20459;-70
2023/04/30 09:37:09;;;;;;;2.80;2.60;;;14.50;99.90;;;;;;5050049;28;20565;-69
2023/04/30 09:39:47;;;;;;;2.70;2.50;;;14.60;99.90;;;;;;5051538;28;20467;-69
2023/04/30 09:42:15;;;;;;;3.30;2.90;;;14.90;99.90;;;;;;5048704;28;21208;-69
2023/04/30 09:44:42;;;;;;;3.20;2.90;;;15.10;99.90;;;;;;5046024;28;20471;-68
2023/04/30 09:47:13;;;;;;;3.30;3.00;;;15.30;99.90;;;;;;5038749;28;20499;-68
2023/04/30 09:49:42;;;;;;;2.90;2.70;;;15.40;99.90;;;;;;5041176;28;20537;-68
2023/04/30 09:52:10;;;;;;;2.60;2.40;;;15.60;99.90;;;;;;5040601;28;20491;-68
2023/04/30 09:54:38;;;;;;;9.63;2.83;;;15.60;99.90;;;;;;5037715;28;20468;-68
2023/04/30 09:57:08;;;;;;;2.63;2.43;;;15.50;99.90;;;;;;5051581;28;20997;-68
2023/04/30 09:59:38;;;;;;;2.97;2.77;;;15.50;99.90;;;;;;5051525;28;20478;-68
2023/04/30 10:02:06;;;;;;;2.93;2.67;;;15.40;99.90;;;;;;5044070;28;20460;-68
2023/04/30 10:04:36;;;;;;;3.47;3.17;;;15.40;99.90;;;;;;5047595;28;20494;-68
2023/04/30 10:07:06;;;;;;;3.20;2.77;;;15.30;99.90;;;;;;5042408;28;20529;-67
2023/04/30 10:09:39;;;;;;;3.27;2.97;;;15.30;99.90;;;;;;5048235;28;20884;-68
2023/04/30 10:12:12;;;;;;;2.57;2.37;;;15.20;99.90;;;;;;5038883;28;20574;-68
2023/04/30 10:14:44;;;;;;;2.60;2.40;;;15.10;99.90;;;;;;5050150;28;21127;-69
2023/04/30 10:17:14;;;;;;;2.60;2.30;;;15.10;99.90;;;;;;5051040;28;20487;-68
2023/04/30 10:19:46;;;;;;;2.77;2.57;;;15.20;99.90;;;;;;5049400;28;20468;-67
2023/04/30 10:22:13;;;;;;;3.13;2.67;;;15.10;99.90;;;;;;5049925;28;20471;-68
2023/04/30 10:24:41;;;;;;;2.60;2.40;;;15.20;99.90;;;;;;5045159;28;20470;-69
2023/04/30 10:27:08;;;;;;;3.53;2.83;;;15.20;99.90;;;;;;5052605;28;21002;-67
2023/04/30 10:29:35;;;;;;;3.30;3.00;;;15.40;99.90;;;;;;5051695;28;20845;-68
2023/04/30 10:32:04;;;;;;;2.80;2.60;;;15.50;99.90;;;;;;5049978;28;20537;-68
2023/04/30 10:34:44;;;;;;;2.27;2.07;;;15.70;99.90;;;;;;5047299;28;20468;-68
2023/04/30 10:37:18;;;;;;;2.60;2.40;;;15.90;99.90;;;;;;5044730;28;21041;-69
2023/04/30 10:39:45;;;;;;;4.13;2.87;;;16.00;99.90;;;;;;5052369;28;20460;-69
2023/04/30 10:42:12;;;;;;;2.73;2.37;;;16.00;99.90;;;;;;5051024;28;20463;-69
2023/04/30 10:44:39;;;;;;;2.73;2.50;;;15.70;99.90;;;;;;5046114;28;20469;-69
2023/04/30 10:47:08;;;;;;;3.20;2.90;;;15.70;99.90;;;;;;5052144;28;20490;-69
2023/04/30 10:49:34;;;;;;;2.63;2.30;;;15.80;99.90;;;;;;5051588;28;20475;-69
2023/04/30 10:52:03;;;;;;;3.73;2.40;;;15.90;99.90;;;;;;5051661;28;20901;-69
2023/04/30 10:54:31;;;;;;;2.53;2.33;;;16.20;99.90;;;;;;5050829;28;20463;-68
2023/04/30 10:57:12;;;;;;;2.73;2.53;;;16.60;99.90;;;;;;5046472;28;20491;-68
2023/04/30 10:59:43;;;;;;;2.30;2.00;;;16.80;99.70;;;;;;5041867;28;20471;-69
2023/04/30 11:02:15;;;;;;;2.30;2.10;;;17.00;99.90;;;;;;5050627;28;20470;-68
2023/04/30 11:05:10;;;;;;;2.10;1.97;;;17.20;99.80;;;;;;5050855;28;20463;-69
2023/04/30 11:07:37;;;;;;;2.70;2.50;;;17.30;99.70;;;;;;5034503;28;20467;-68
2023/04/30 11:10:07;;;;;;;2.50;2.30;;;17.40;98.60;;;;;;5048797;28;20841;-68
2023/04/30 11:12:34;;;;;;;2.40;2.00;;;17.50;99.50;;;;;;5047907;28;20479;-69
2023/04/30 11:15:05;;;;;;;2.70;2.50;;;17.70;99.90;;;;;;5050704;28;20518;-68
2023/04/30 11:17:33;;;;;;;2.43;2.23;;;17.40;99.30;;;;;;5050962;28;20469;-69
2023/04/30 11:20:01;;;;;;;2.80;2.60;;;17.40;99.90;;;;;;5051208;28;20471;-68
2023/04/30 11:22:34;;;;;;;2.97;2.70;;;17.00;99.40;;;;;;5052718;28;20563;-68
2023/04/30 11:25:04;;;;;;;2.70;2.50;;;16.70;99.60;;;;;;5052508;28;20471;-68
2023/04/30 11:27:33;;;;;;;3.90;2.97;;;16.80;99.90;;;;;;5042884;28;20464;-68
2023/04/30 11:30:01;;;;;;;2.87;2.67;;;16.80;99.30;;;;;;5044676;28;20475;-68
2023/04/30 11:32:34;;;;;;;3.23;2.57;;;16.80;99.90;;;;;;5049441;28;20516;-67
2023/04/30 11:35:02;;;;;;;3.17;2.87;;;17.00;99.90;;;;;;5050670;28;20870;-68
2023/04/30 11:37:31;;;;;;;2.70;2.50;;;16.90;99.90;;;;;;5050039;28;20884;-68
2023/04/30 11:40:02;;;;;;;2.73;2.40;;;16.90;99.90;;;;;;5049312;28;20882;-67
2023/04/30 11:42:30;;;;;;;2.90;2.70;;;16.70;99.90;;;;;;5039486;28;20463;-67
2023/04/30 11:45:06;;;;;;;3.47;3.17;;;16.60;99.90;;;;;;5049501;28;20545;-68
2023/04/30 11:47:41;;;;;;;2.80;2.60;;;16.40;99.90;;;;;;5029169;28;21005;-67
2023/04/30 11:50:09;;;;;;;2.40;2.20;;;16.20;99.70;;;;;;5042330;28;20474;-69
2023/04/30 11:52:36;;;;;;;2.87;2.67;;;16.10;99.90;;;;;;5051543;28;20479;-68
2023/04/30 11:55:07;;;;;;;3.00;2.70;;;16.10;99.80;;;;;;5050572;28;20960;-68
2023/04/30 11:57:40;;;;;;;2.53;2.33;;;16.20;99.90;;;;;;5051658;28;20459;-68
2023/04/30 12:00:15;;;;;;;2.70;2.50;;;16.40;99.70;;;;;;5052052;28;20471;-68
2023/04/30 12:02:45;;;;;;;2.17;1.97;;;16.70;99.90;;;;;;5051771;28;20461;-67
2023/04/30 12:05:14;;;;;;;2.40;2.20;;;16.90;99.90;;;;;;5052059;28;20513;-68
2023/04/30 12:07:46;;;;;;;3.00;2.40;;;17.00;98.90;;;;;;5033296;28;20551;-69
2023/04/30 12:10:13;;;;;;;2.40;2.20;;;17.10;99.40;;;;;;5038204;28;20487;-69
2023/04/30 12:12:39;;;;;;;2.63;2.43;;;17.30;98.40;;;;;;5052485;28;20487;-70
2023/04/30 12:15:17;;;;;;;3.77;2.47;;;17.30;98.90;;;;;;5050390;28;20470;-69
2023/04/30 12:17:46;;;;;;;2.63;2.30;;;17.20;99.40;;;;;;5051804;28;20942;-68
2023/04/30 12:20:14;;;;;;;2.43;2.23;;;17.20;98.80;;;;;;5053572;28;20488;-67
2023/04/30 12:22:41;;;;;;;2.47;2.03;;;17.10;98.90;;;;;;5051695;28;20487;-68
2023/04/30 12:25:12;;;;;;;2.70;2.50;;;17.00;99.20;;;;;;5051917;28;20479;-68
2023/04/30 12:27:40;;;;;;;2.67;2.47;;;17.00;99.00;;;;;;5052033;28;20872;-68
2023/04/30 12:30:09;;;;;;;2.43;2.23;;;17.00;99.10;;;;;;5051357;28;20463;-68
2023/04/30 12:32:40;;;;;;;2.60;2.40;;;17.10;99.40;;;;;;5051213;28;20479;-68
2023/04/30 12:35:13;;;;;;;2.33;2.13;;;17.10;98.80;;;;;;5050507;28;20459;-68
2023/04/30 12:37:43;;;;;;;3.53;2.20;;;17.00;97.70;;;;;;5051009;28;20472;-70
2023/04/30 12:40:10;;;;;;;2.67;2.47;;;16.80;98.10;;;;;;5050596;28;20455;-67
2023/04/30 12:43:03;;;;;;;2.87;2.60;;;16.80;99.20;;;;;;5093278;22;20482;-90
2023/04/30 12:46:08;;;;;;;2.73;2.50;;;16.80;97.70;;;;;;5098476;28;20488;-92
2023/04/30 12:48:48;;;;;;;2.73;2.23;;;16.90;98.20;;;;;;5095033;28;20467;-93
2023/04/30 12:51:19;;;;;;;2.80;2.53;;;17.00;98.40;;;;;;5080210;22;20590;-67
2023/04/30 12:53:46;;;;;;;2.67;2.47;;;17.10;98.50;;;;;;5071056;28;20742;-67
2023/04/30 12:56:15;;;;;;;2.87;2.67;;;17.20;99.90;;;;;;5060284;28;21012;-67